Cimarron, Colorado
Current Conditions -  °F | °C
As of 6:53 AM on Tuesday 21 Oct 2014 (Local Time) from KMTJ Reporting Station
Overcast Overcast  
Wind Chill: 52°   Ceiling: 9000
Heat Index: 52°   Visibility: 10mi
Dew Point: 37°   Wind: 5mph
Humidity: 57%   Direction: 100°E
Pressure: 30.13"   Gusts: NA
Location:  38.44°N, 107.56°W
Report Text: KMTJ 211253Z AUTO 10004KT 10SM BKN090 OVC120 11/03 A3013 RMK AO2 SLP150 T01110028
Loading
Personal Weather Stations






























Interactive Weather Map
Tropical Storm Tracking
New forecast layout! Learn more

10-Day Weather Forecast

Advertisements
Track Severe Weather on mobile